Time;durP1;ratioP1;P1;durP2;ratioP2;P2;SDS_P1;SDS_P2;PMS_P1;PMS_P2;Temp;Humidity;BMP_temperature;BMP_pressure;BME280_temperature;BME280_humidity;BME280_pressure;Samples;Min_cycle;Max_cycle;Signal;HPM_P1;HPM_P2
2022/03/30 08:43:18;;;;;;;1.35;0.77;;;14.70;74.30;;;;;;2283191;62;30423;-77
2022/03/30 08:45:47;;;;;;;3.13;0.90;;;14.60;73.30;;;;;;2274848;62;30123;-77
2022/03/30 08:48:13;;;;;;;2.10;1.20;;;14.60;74.40;;;;;;2274864;62;30346;-78
2022/03/30 08:50:39;;;;;;;5.22;0.98;;;14.60;75.40;;;;;;2267252;62;30757;-75
2022/03/30 08:53:06;;;;;;;1.63;0.75;;;14.60;76.00;;;;;;2265795;62;30339;-75
2022/03/30 08:55:32;;;;;;;1.17;0.80;;;14.70;76.70;;;;;;2259371;62;29981;-74
2022/03/30 08:57:59;;;;;;;4.57;1.17;;;14.70;77.30;;;;;;2259121;62;30219;-75
2022/03/30 09:00:26;;;;;;;4.65;0.80;;;14.70;77.70;;;;;;2266320;62;30636;-75
2022/03/30 09:03:00;;;;;;;13.32;1.80;;;14.70;77.90;;;;;;2266609;62;30285;-76
2022/03/30 09:05:30;;;;;;;9.05;1.00;;;14.70;78.20;;;;;;2259479;62;30034;-75
2022/03/30 09:08:13;;;;;;;2.85;1.10;;;14.80;78.30;;;;;;2259444;62;30446;-75
2022/03/30 09:10:43;;;;;;;3.70;1.10;;;14.80;77.80;;;;;;2259852;62;29965;-74
2022/03/30 09:13:14;;;;;;;1.10;0.80;;;14.80;78.40;;;;;;2259295;62;30109;-74
2022/03/30 09:15:40;;;;;;;4.18;1.30;;;14.90;78.40;;;;;;2259367;62;30020;-74
2022/03/30 09:18:07;;;;;;;2.17;1.05;;;14.90;78.30;;;;;;2259313;62;30011;-75
2022/03/30 09:20:35;;;;;;;3.85;1.10;;;14.90;78.40;;;;;;2252296;62;32685;-77
2022/03/30 09:23:01;;;;;;;2.67;1.02;;;14.90;78.30;;;;;;2259194;62;30190;-76
2022/03/30 09:25:32;;;;;;;4.97;1.30;;;15.00;78.60;;;;;;2259182;62;30173;-77
2022/03/30 09:27:58;;;;;;;2.53;1.33;;;15.00;78.40;;;;;;2266393;62;30344;-76
2022/03/30 09:30:25;;;;;;;2.75;1.00;;;15.00;78.20;;;;;;2252567;62;30176;-74
2022/03/30 09:32:53;;;;;;;4.03;1.13;;;15.00;78.10;;;;;;2259348;62;30494;-74
2022/03/30 09:35:27;;;;;;;1.00;0.90;;;15.00;78.00;;;;;;2259212;62;30283;-75
2022/03/30 09:38:03;;;;;;;2.05;0.95;;;15.00;77.90;;;;;;2259592;62;30005;-76
2022/03/30 09:40:36;;;;;;;1.83;1.02;;;15.10;77.70;;;;;;2266558;62;30824;-77
2022/03/30 09:43:23;;;;;;;2.45;1.10;;;15.10;77.50;;;;;;2265950;62;30145;-79
2022/03/30 09:46:05;;;;;;;1.83;0.85;;;15.10;76.90;;;;;;2266405;62;30278;-78
2022/03/30 09:48:35;;;;;;;1.73;0.80;;;15.10;77.00;;;;;;2258962;62;30126;-80
2022/03/30 09:51:02;;;;;;;2.08;1.15;;;15.10;77.40;;;;;;2267278;62;30152;-80
2022/03/30 09:53:30;;;;;;;1.35;0.70;;;15.10;77.30;;;;;;2271644;62;30517;-80
2022/03/30 09:56:03;;;;;;;3.67;1.20;;;15.10;77.10;;;;;;2254863;62;30086;-80
2022/03/30 09:58:32;;;;;;;3.63;1.00;;;15.10;76.70;;;;;;2269136;62;30083;-80
2022/03/30 10:01:12;;;;;;;1.05;0.60;;;15.10;76.50;;;;;;2268977;62;32237;-79
2022/03/30 10:03:51;;;;;;;4.32;1.10;;;15.10;76.50;;;;;;2268810;62;30137;-80
2022/03/30 10:06:33;;;;;;;4.15;1.33;;;15.10;76.40;;;;;;2262084;62;30120;-79
2022/03/30 10:08:59;;;;;;;1.80;0.95;;;15.10;75.90;;;;;;2268949;62;29989;-80
2022/03/30 10:11:27;;;;;;;2.28;0.93;;;15.10;76.00;;;;;;2269055;62;30124;-76
2022/03/30 10:13:58;;;;;;;1.73;0.77;;;15.00;75.80;;;;;;2268800;62;30461;-80
2022/03/30 10:16:24;;;;;;;1.50;0.88;;;15.10;76.00;;;;;;2268577;62;30069;-79
2022/03/30 10:18:51;;;;;;;1.42;0.90;;;15.10;76.00;;;;;;2269059;62;30169;-76
2022/03/30 10:21:54;;;;;;;0.95;0.60;;;15.00;75.70;;;;;;2268947;62;31112;-78
2022/03/30 10:24:35;;;;;;;4.45;1.10;;;15.00;74.80;;;;;;2268722;62;30744;-76
2022/03/30 10:27:20;;;;;;;4.10;1.38;;;15.00;75.30;;;;;;2268856;62;30026;-79
2022/03/30 10:29:52;;;;;;;3.17;0.98;;;15.00;74.30;;;;;;2268784;62;30048;-79
2022/03/30 10:32:25;;;;;;;1.75;0.82;;;15.00;75.00;;;;;;2255118;62;30204;-78
2022/03/30 10:34:51;;;;;;;1.33;0.82;;;15.00;74.80;;;;;;2268667;62;30496;-75
2022/03/30 10:37:34;;;;;;;2.67;1.17;;;15.00;74.50;;;;;;2268540;62;30143;-76
2022/03/30 10:40:03;;;;;;;1.60;0.60;;;15.00;74.20;;;;;;2255393;62;30153;-77
2022/03/30 10:42:47;;;;;;;4.50;0.80;;;15.00;74.50;;;;;;2268828;62;30043;-78
2022/03/30 10:45:24;;;;;;;6.18;0.90;;;14.90;73.10;;;;;;2268523;62;30078;-76
2022/03/30 10:48:14;;;;;;;4.18;0.85;;;14.90;74.10;;;;;;2267089;62;30335;-75
2022/03/30 10:51:01;;;;;;;1.80;0.90;;;14.90;72.90;;;;;;2261541;62;30192;-72
2022/03/30 10:53:38;;;;;;;3.13;1.10;;;15.00;73.80;;;;;;2261433;62;31882;-74
2022/03/30 10:56:07;;;;;;;1.52;0.80;;;15.00;73.50;;;;;;2268784;62;30221;-78
2022/03/30 10:58:35;;;;;;;2.97;0.90;;;14.90;73.60;;;;;;2268064;62;30087;-74
2022/03/30 11:01:22;;;;;;;4.78;1.05;;;15.00;73.40;;;;;;2261058;62;30813;-72
2022/03/30 11:04:04;;;;;;;3.25;1.13;;;15.00;73.00;;;;;;2268580;62;31982;-72
2022/03/30 11:06:32;;;;;;;2.28;0.70;;;15.00;73.90;;;;;;2267773;62;30499;-72
2022/03/30 11:09:23;;;;;;;2.28;0.70;;;15.00;74.00;;;;;;2261295;62;30275;-72
2022/03/30 11:12:03;;;;;;;2.05;0.50;;;15.10;73.70;;;;;;2261514;62;30136;-72
2022/03/30 11:14:36;;;;;;;2.67;0.98;;;15.10;73.30;;;;;;2268283;62;30106;-72
2022/03/30 11:17:09;;;;;;;1.40;0.75;;;15.10;74.20;;;;;;2268459;62;30491;-72
2022/03/30 11:19:47;;;;;;;3.17;0.88;;;15.10;73.60;;;;;;2268345;62;29935;-72
2022/03/30 11:22:16;;;;;;;1.88;0.80;;;15.10;73.80;;;;;;2268698;62;30144;-73
2022/03/30 11:25:04;;;;;;;2.90;0.57;;;15.20;73.80;;;;;;2268450;62;31205;-72
2022/03/30 11:27:30;;;;;;;3.83;0.90;;;15.20;73.50;;;;;;2268294;62;30527;-72
2022/03/30 11:29:58;;;;;;;1.58;0.60;;;15.20;74.00;;;;;;2261151;62;30252;-72
2022/03/30 11:32:24;;;;;;;3.33;1.58;;;15.30;74.00;;;;;;2261076;62;30171;-72
2022/03/30 11:35:00;;;;;;;2.10;0.80;;;15.30;73.90;;;;;;2268226;62;30207;-72
2022/03/30 11:37:34;;;;;;;4.03;0.90;;;15.30;74.10;;;;;;2268602;62;30697;-72
2022/03/30 11:40:22;;;;;;;1.48;0.60;;;15.40;74.00;;;;;;2261463;62;30040;-72
2022/03/30 11:42:50;;;;;;;2.15;0.68;;;15.40;73.90;;;;;;2261017;62;29971;-72
2022/03/30 11:45:19;;;;;;;2.45;0.65;;;15.40;73.90;;;;;;2253669;62;30136;-73
2022/03/30 11:48:02;;;;;;;2.40;0.70;;;15.40;73.80;;;;;;2253308;62;30105;-73
2022/03/30 11:50:35;;;;;;;2.05;0.70;;;15.40;73.60;;;;;;2253226;63;30446;-72
2022/03/30 11:53:05;;;;;;;1.92;0.60;;;15.40;73.50;;;;;;2260253;63;30198;-73
2022/03/30 11:55:35;;;;;;;1.38;0.70;;;15.40;73.00;;;;;;2252851;63;30838;-73
2022/03/30 11:58:03;;;;;;;1.25;0.80;;;15.30;73.40;;;;;;2259899;63;30038;-72
2022/03/30 12:00:31;;;;;;;1.75;0.88;;;15.40;73.30;;;;;;2253136;63;30111;-74
2022/03/30 12:02:58;;;;;;;3.72;1.00;;;15.40;73.40;;;;;;2260118;63;30232;-80
2022/03/30 12:05:25;;;;;;;2.33;0.60;;;15.50;73.80;;;;;;2252598;63;30766;-77
2022/03/30 12:07:53;;;;;;;0.80;0.70;;;15.40;73.20;;;;;;2260019;63;30829;-77
2022/03/30 12:10:18;;;;;;;2.17;1.00;;;15.40;73.40;;;;;;2250111;63;30344;-81
2022/03/30 12:12:45;;;;;;;4.00;0.70;;;15.40;73.10;;;;;;2251549;63;30291;-78
2022/03/30 12:15:19;;;;;;;1.80;0.85;;;15.50;73.20;;;;;;2259047;63;31032;-78
2022/03/30 12:17:58;;;;;;;3.45;0.70;;;15.40;72.60;;;;;;2252194;63;30888;-77
2022/03/30 12:20:29;;;;;;;10.77;0.82;;;15.50;72.50;;;;;;2252065;63;30105;-79
2022/03/30 12:23:01;;;;;;;2.83;0.73;;;15.50;72.50;;;;;;2259204;62;30404;-78
2022/03/30 12:25:32;;;;;;;1.25;0.77;;;15.50;72.10;;;;;;2259093;62;30025;-77
2022/03/30 12:28:01;;;;;;;3.60;1.48;;;15.50;72.30;;;;;;2259178;63;30783;-78
2022/03/30 12:30:32;;;;;;;2.90;0.90;;;15.50;72.40;;;;;;2258930;63;30137;-78
2022/03/30 12:32:58;;;;;;;1.05;0.57;;;15.50;72.40;;;;;;2245585;62;30235;-78
2022/03/30 12:35:24;;;;;;;6.63;1.10;;;15.50;72.50;;;;;;2267563;62;31002;-80
2022/03/30 12:37:51;;;;;;;3.30;0.90;;;15.60;71.80;;;;;;2253884;62;30014;-82
2022/03/30 12:40:20;;;;;;;5.22;1.02;;;15.60;72.60;;;;;;2253876;62;30171;-81
2022/03/30 12:42:49;;;;;;;3.15;0.80;;;15.60;72.20;;;;;;2268027;62;30219;-82
2022/03/30 12:45:17;;;;;;;1.60;0.70;;;15.70;72.50;;;;;;2267818;62;31170;-82
2022/03/30 12:47:51;;;;;;;2.27;0.73;;;15.70;72.10;;;;;;2254060;62;30637;-81
2022/03/30 12:50:23;;;;;;;4.40;0.90;;;15.70;72.00;;;;;;2267982;62;30040;-82
2022/03/30 12:52:52;;;;;;;2.92;0.60;;;15.70;71.80;;;;;;2268228;62;30096;-82
2022/03/30 12:55:30;;;;;;;1.83;0.50;;;15.70;72.00;;;;;;2268217;62;32314;-82
2022/03/30 12:57:59;;;;;;;1.38;0.70;;;15.80;71.50;;;;;;2267514;62;30722;-82
2022/03/30 13:00:54;;;;;;;1.77;0.63;;;15.80;71.70;;;;;;2260495;62;30224;-81
2022/03/30 13:03:29;;;;;;;1.60;0.60;;;15.80;71.10;;;;;;2268187;62;30042;-82
2022/03/30 13:06:08;;;;;;;7.07;0.90;;;15.90;71.50;;;;;;2260399;62;30908;-82
2022/03/30 13:08:39;;;;;;;2.53;0.75;;;15.90;71.40;;;;;;2267918;62;30960;-81
2022/03/30 13:11:08;;;;;;;1.60;0.50;;;15.90;71.60;;;;;;2267922;62;30954;-82
2022/03/30 13:13:38;;;;;;;2.65;0.70;;;16.00;71.60;;;;;;2267821;62;30111;-82
2022/03/30 13:16:15;;;;;;;1.50;0.73;;;16.00;71.60;;;;;;2267994;62;32489;-82
2022/03/30 13:18:43;;;;;;;1.35;0.60;;;16.00;71.60;;;;;;2260523;62;32244;-82
2022/03/30 13:21:13;;;;;;;1.00;0.50;;;16.00;71.60;;;;;;2267914;62;30626;-82
2022/03/30 13:23:48;;;;;;;1.98;0.93;;;16.00;71.40;;;;;;2268010;62;30473;-82
2022/03/30 13:26:27;;;;;;;2.10;0.70;;;16.00;71.60;;;;;;2260643;62;31195;-82
2022/03/30 13:28:53;;;;;;;1.48;0.60;;;16.10;71.50;;;;;;2261267;62;31625;-82
2022/03/30 13:31:19;;;;;;;1.02;0.63;;;16.10;71.90;;;;;;2268941;62;30240;-82
2022/03/30 13:33:48;;;;;;;2.55;0.68;;;16.10;72.00;;;;;;2269023;62;30051;-82
2022/03/30 13:36:14;;;;;;;1.40;0.43;;;16.10;71.90;;;;;;2269151;62;31067;-82
2022/03/30 13:38:43;;;;;;;2.63;0.60;;;16.20;72.10;;;;;;2269083;62;30670;-82
2022/03/30 13:41:11;;;;;;;1.15;0.65;;;16.20;71.90;;;;;;2261700;62;30229;-82
2022/03/30 13:43:52;;;;;;;1.20;0.70;;;16.20;72.00;;;;;;2253859;63;30086;-82
2022/03/30 13:46:29;;;;;;;1.63;0.68;;;16.20;71.70;;;;;;2252504;63;32258;-82
2022/03/30 13:49:13;;;;;;;1.02;0.73;;;16.20;71.50;;;;;;2252772;63;32878;-82
2022/03/30 13:51:40;;;;;;;1.15;0.30;;;16.30;71.10;;;;;;2253171;63;30051;-82
2022/03/30 13:54:07;;;;;;;2.63;0.60;;;16.30;71.80;;;;;;2252748;63;30355;-82
2022/03/30 13:56:48;;;;;;;0.68;0.57;;;16.30;71.80;;;;;;2252175;63;30233;-82
2022/03/30 13:59:14;;;;;;;2.10;0.50;;;16.30;71.80;;;;;;2252809;63;32127;-82
2022/03/30 14:01:41;;;;;;;2.13;0.80;;;16.40;71.50;;;;;;2251890;63;30294;-82
2022/03/30 14:04:09;;;;;;;0.95;0.38;;;16.40;71.70;;;;;;2252928;63;30299;-82
2022/03/30 14:06:35;;;;;;;0.40;0.40;;;16.40;71.40;;;;;;2252886;63;32144;-82
2022/03/30 14:09:01;;;;;;;1.42;0.70;;;16.40;71.00;;;;;;2252588;63;30553;-81
2022/03/30 14:11:27;;;;;;;1.35;0.70;;;16.50;71.20;;;;;;2252842;63;29952;-82
2022/03/30 14:13:52;;;;;;;0.77;0.50;;;16.60;70.80;;;;;;2252866;63;30370;-82
2022/03/30 14:16:18;;;;;;;2.38;0.50;;;16.60;70.60;;;;;;2252657;63;32118;-82
2022/03/30 14:18:47;;;;;;;1.15;0.60;;;16.60;70.80;;;;;;2252935;63;30559;-82
2022/03/30 14:21:12;;;;;;;0.40;0.40;;;16.60;70.40;;;;;;2252829;63;30103;-82
2022/03/30 14:23:40;;;;;;;1.10;0.50;;;16.60;70.30;;;;;;2252031;63;30157;-82
2022/03/30 14:26:09;;;;;;;0.73;0.28;;;16.60;70.30;;;;;;2252757;63;31037;-82
2022/03/30 14:28:34;;;;;;;1.55;0.52;;;16.60;71.00;;;;;;2252180;63;30750;-82
2022/03/30 14:31:00;;;;;;;0.63;0.50;;;16.60;70.90;;;;;;2252669;63;30276;-82
2022/03/30 14:33:26;;;;;;;1.20;0.60;;;16.60;70.70;;;;;;2252973;63;30047;-82
2022/03/30 14:35:54;;;;;;;1.13;0.60;;;16.70;70.40;;;;;;2252714;63;30067;-82
2022/03/30 14:38:19;;;;;;;0.88;0.38;;;16.70;70.20;;;;;;2252613;63;30950;-82
2022/03/30 14:40:48;;;;;;;1.15;0.52;;;16.70;70.10;;;;;;2252691;63;30200;-82
2022/03/30 14:43:14;;;;;;;0.43;0.30;;;16.70;70.00;;;;;;2262916;62;30135;-82
2022/03/30 14:45:40;;;;;;;0.93;0.50;;;16.70;69.90;;;;;;2268828;62;31098;-82
2022/03/30 14:48:06;;;;;;;0.85;0.57;;;16.70;70.00;;;;;;2268785;62;30208;-82
2022/03/30 14:50:32;;;;;;;1.50;0.60;;;16.70;70.00;;;;;;2268576;62;30279;-82
2022/03/30 14:52:58;;;;;;;0.52;0.50;;;16.60;69.90;;;;;;2268737;62;30148;-82
2022/03/30 14:55:27;;;;;;;1.13;0.40;;;16.60;70.00;;;;;;2268711;62;31379;-82
2022/03/30 14:57:52;;;;;;;0.50;0.40;;;16.60;70.00;;;;;;2268401;62;30751;-82
2022/03/30 15:00:19;;;;;;;0.50;0.47;;;16.50;69.90;;;;;;2269214;62;30275;-82
2022/03/30 15:02:49;;;;;;;0.40;0.40;;;16.50;69.80;;;;;;2254796;62;30064;-82
2022/03/30 15:05:15;;;;;;;0.60;0.47;;;16.50;70.10;;;;;;2268490;62;30847;-82
2022/03/30 15:07:41;;;;;;;1.05;0.50;;;16.50;69.90;;;;;;2268693;62;30200;-82
2022/03/30 15:10:08;;;;;;;0.70;0.30;;;16.50;69.90;;;;;;2268576;62;30266;-82
2022/03/30 15:12:37;;;;;;;0.65;0.30;;;16.50;69.70;;;;;;2261046;62;30087;-82
2022/03/30 15:15:07;;;;;;;0.93;0.57;;;16.50;69.80;;;;;;2261414;62;30119;-82
2022/03/30 15:17:35;;;;;;;0.47;0.40;;;16.50;70.00;;;;;;2254792;62;31275;-82
2022/03/30 15:20:05;;;;;;;0.70;0.60;;;16.50;69.80;;;;;;2268460;62;30070;-82
2022/03/30 15:22:32;;;;;;;0.88;0.50;;;16.50;69.90;;;;;;2261444;62;30078;-82
2022/03/30 15:24:59;;;;;;;1.00;0.60;;;16.50;69.90;;;;;;2268547;62;30834;-83
2022/03/30 15:27:28;;;;;;;0.65;0.30;;;16.50;70.20;;;;;;2268366;62;32171;-82
2022/03/30 15:29:54;;;;;;;0.40;0.38;;;16.40;70.40;;;;;;2268609;62;30536;-82
2022/03/30 15:32:20;;;;;;;1.20;0.40;;;16.30;70.00;;;;;;2268366;62;30207;-82
2022/03/30 15:34:46;;;;;;;0.65;0.60;;;16.30;70.50;;;;;;2259886;62;31195;-82
2022/03/30 15:37:12;;;;;;;0.75;0.50;;;16.30;70.50;;;;;;2268430;62;30550;-82
2022/03/30 15:39:38;;;;;;;0.30;0.30;;;16.30;70.50;;;;;;2268511;62;30084;-83
2022/03/30 15:42:04;;;;;;;1.45;0.70;;;16.20;70.60;;;;;;2261208;62;30274;-82
2022/03/30 15:44:30;;;;;;;1.23;0.35;;;16.20;70.50;;;;;;2268886;62;31924;-82
2022/03/30 15:46:56;;;;;;;1.40;0.52;;;16.20;70.40;;;;;;2268791;62;31747;-82
2022/03/30 15:49:22;;;;;;;1.35;0.60;;;16.10;70.50;;;;;;2268487;62;30066;-82
2022/03/30 15:51:48;;;;;;;1.13;0.70;;;16.10;70.60;;;;;;2268253;62;30066;-82
2022/03/30 15:54:14;;;;;;;0.95;0.70;;;16.10;70.70;;;;;;2268436;62;30777;-82
2022/03/30 15:56:41;;;;;;;5.63;1.00;;;16.10;70.50;;;;;;2268440;62;31602;-86
2022/03/30 15:59:08;;;;;;;2.17;0.70;;;16.00;70.20;;;;;;2268731;62;30135;-84
2022/03/30 16:01:33;;;;;;;2.85;0.98;;;16.00;70.70;;;;;;2268257;62;30173;-81
2022/03/30 16:03:59;;;;;;;15.30;1.40;;;16.00;70.20;;;;;;2268376;62;30251;-81
2022/03/30 16:06:35;;;;;;;4.03;0.60;;;16.00;70.30;;;;;;2268158;62;31745;-81
2022/03/30 16:09:02;;;;;;;2.50;0.60;;;15.90;70.60;;;;;;2267886;62;30106;-81
2022/03/30 16:14:18;;;;;;;4.32;0.60;;;16.00;70.90;;;;;;2252720;62;31865;-80
2022/03/30 16:16:46;;;;;;;1.98;0.57;;;15.90;71.10;;;;;;2267852;62;30370;-81
2022/03/30 16:19:14;;;;;;;8.98;0.90;;;15.90;71.30;;;;;;2247237;63;30372;-80
2022/03/30 16:21:44;;;;;;;0.85;0.65;;;15.90;71.90;;;;;;2252335;63;30244;-79
2022/03/30 16:24:13;;;;;;;1.27;0.65;;;15.90;71.50;;;;;;2259522;63;30787;-81
2022/03/30 16:26:42;;;;;;;2.63;0.77;;;15.90;71.70;;;;;;2259595;63;31388;-83
2022/03/30 16:29:09;;;;;;;4.55;0.98;;;15.90;71.30;;;;;;2259528;63;30220;-81
2022/03/30 16:31:36;;;;;;;1.83;0.85;;;15.80;71.70;;;;;;2252887;63;30371;-79
2022/03/30 16:34:05;;;;;;;1.88;0.80;;;15.80;71.70;;;;;;2252821;63;30924;-78
2022/03/30 16:36:31;;;;;;;5.05;0.85;;;15.80;71.90;;;;;;2259605;63;32520;-75
2022/03/30 16:38:58;;;;;;;3.00;0.73;;;15.80;71.70;;;;;;2259666;63;30176;-77
2022/03/30 16:41:24;;;;;;;5.00;0.73;;;15.90;72.20;;;;;;2252895;63;30070;-77
2022/03/30 16:43:50;;;;;;;3.72;0.80;;;15.80;71.50;;;;;;2259701;63;29996;-76
2022/03/30 16:46:18;;;;;;;4.40;1.00;;;15.80;72.00;;;;;;2259840;63;30856;-75
2022/03/30 16:48:45;;;;;;;2.05;0.60;;;15.80;72.20;;;;;;2252732;63;30135;-76
2022/03/30 16:51:11;;;;;;;1.33;0.73;;;15.80;72.20;;;;;;2259590;63;30377;-77
2022/03/30 16:53:37;;;;;;;1.27;0.90;;;15.80;72.00;;;;;;2252417;63;31986;-76
2022/03/30 16:56:03;;;;;;;1.58;0.95;;;15.80;72.00;;;;;;2259592;63;30578;-77
2022/03/30 16:58:30;;;;;;;4.85;1.00;;;15.80;72.20;;;;;;2252554;63;30222;-76
2022/03/30 17:00:58;;;;;;;2.50;1.10;;;15.80;72.00;;;;;;2259557;63;30184;-76
2022/03/30 17:03:26;;;;;;;4.80;1.13;;;15.70;72.60;;;;;;2253183;63;30752;-75
2022/03/30 17:05:53;;;;;;;1.25;0.70;;;15.80;72.00;;;;;;2253882;63;30080;-76
2022/03/30 17:11:03;;;;;;;2.25;1.23;;;15.70;72.50;;;;;;2260521;63;30100;-76
2022/03/30 17:13:29;;;;;;;2.67;1.13;;;15.70;72.40;;;;;;2261069;63;30887;-75
2022/03/30 17:15:55;;;;;;;2.90;1.05;;;15.70;72.60;;;;;;2253882;63;30269;-76
2022/03/30 17:18:21;;;;;;;1.30;1.02;;;15.70;72.40;;;;;;2260956;63;30161;-76
2022/03/30 17:20:47;;;;;;;1.70;0.85;;;15.60;71.20;;;;;;2260987;63;30137;-75
2022/03/30 17:23:13;;;;;;;1.42;1.20;;;15.60;71.00;;;;;;2261019;63;30938;-81
2022/03/30 17:25:39;;;;;;;6.63;1.10;;;15.60;71.90;;;;;;2263925;62;31880;-81
2022/03/30 17:28:05;;;;;;;3.10;0.93;;;15.60;72.80;;;;;;2269107;62;30113;-81
2022/03/30 17:30:33;;;;;;;1.98;1.25;;;15.50;72.30;;;;;;2269077;62;30157;-81
2022/03/30 17:33:02;;;;;;;1.40;0.90;;;15.50;72.20;;;;;;2268611;62;30183;-82
2022/03/30 17:35:29;;;;;;;2.88;1.40;;;15.50;72.30;;;;;;2255276;62;30181;-81
2022/03/30 17:37:55;;;;;;;0.90;0.73;;;15.50;72.50;;;;;;2269108;62;30368;-81
2022/03/30 17:40:24;;;;;;;4.50;1.10;;;15.40;72.40;;;;;;2255146;62;30208;-80
2022/03/30 17:42:53;;;;;;;2.58;0.98;;;15.40;72.50;;;;;;2255206;62;30872;-78
2022/03/30 17:45:20;;;;;;;3.35;1.42;;;15.40;72.40;;;;;;2261609;62;31843;-77
2022/03/30 17:47:48;;;;;;;2.25;1.00;;;15.40;72.80;;;;;;2268733;62;30120;-78
2022/03/30 17:53:03;;;;;;;2.08;0.77;;;15.40;72.30;;;;;;2262485;62;30973;-78
2022/03/30 17:55:30;;;;;;;2.03;0.75;;;15.40;72.20;;;;;;2254069;63;30604;-78
2022/03/30 17:57:58;;;;;;;5.18;0.95;;;15.50;72.00;;;;;;2253654;63;30062;-78
2022/03/30 18:00:29;;;;;;;2.73;0.90;;;15.50;71.90;;;;;;2260598;63;30430;-78
2022/03/30 18:02:54;;;;;;;2.70;0.82;;;15.60;72.80;;;;;;2253560;63;30087;-79
2022/03/30 18:05:20;;;;;;;3.03;0.73;;;15.60;72.00;;;;;;2253477;63;30697;-77
2022/03/30 18:07:47;;;;;;;3.38;0.75;;;15.70;72.10;;;;;;2252939;63;30108;-78
2022/03/30 18:10:13;;;;;;;2.55;0.80;;;15.70;71.90;;;;;;2253603;63;30050;-78
2022/03/30 18:12:41;;;;;;;1.20;0.90;;;15.80;72.10;;;;;;2253430;63;30871;-82
2022/03/30 18:15:08;;;;;;;1.42;0.80;;;15.90;72.20;;;;;;2260272;63;31000;-78
2022/03/30 18:17:34;;;;;;;2.05;0.90;;;15.90;72.40;;;;;;2260750;63;30227;-81
2022/03/30 18:20:00;;;;;;;1.77;0.55;;;16.00;72.70;;;;;;2260832;63;30363;-81
2022/03/30 18:22:29;;;;;;;2.50;0.70;;;16.10;72.70;;;;;;2260510;63;31129;-79
2022/03/30 18:24:55;;;;;;;2.20;0.65;;;16.10;72.60;;;;;;2260767;63;30145;-79
2022/03/30 18:27:20;;;;;;;7.20;1.40;;;16.10;72.90;;;;;;2260849;63;30227;-78
2022/03/30 18:29:46;;;;;;;4.20;1.00;;;16.20;72.60;;;;;;2252263;63;30197;-77
2022/03/30 18:32:16;;;;;;;2.55;0.60;;;16.20;72.90;;;;;;2260095;62;32451;-77
2022/03/30 18:34:42;;;;;;;3.78;0.70;;;16.20;72.90;;;;;;2260631;63;30556;-77
2022/03/30 18:37:08;;;;;;;2.30;0.70;;;16.30;72.80;;;;;;2260309;63;30320;-77
2022/03/30 18:39:40;;;;;;;2.60;0.55;;;16.40;73.00;;;;;;2253387;63;30250;-78
2022/03/30 18:42:07;;;;;;;;;;;16.50;72.90;;;;;;2260560;63;31168;-78
2022/03/30 18:44:33;;;;;;;2.53;0.60;;;16.50;72.50;;;;;;2260656;63;30064;-79
2022/03/30 18:47:01;;;;;;;0.85;0.60;;;16.60;72.60;;;;;;2253339;63;30187;-79
2022/03/30 18:49:27;;;;;;;1.33;0.60;;;16.60;72.50;;;;;;2260408;63;30086;-78
2022/03/30 18:51:54;;;;;;;1.85;0.65;;;16.70;72.50;;;;;;2260411;63;30235;-78
2022/03/30 18:54:20;;;;;;;0.32;0.28;;;16.70;72.70;;;;;;2260556;63;31947;-78
2022/03/30 18:56:46;;;;;;;0.65;0.30;;;16.80;72.00;;;;;;2258601;62;30184;-78
2022/03/30 18:59:15;;;;;;;0.95;0.50;;;16.80;71.90;;;;;;2261356;62;29981;-79
2022/03/30 19:01:42;;;;;;;0.32;0.32;;;16.90;71.70;;;;;;2260999;62;30224;-79
2022/03/30 19:04:08;;;;;;;0.68;0.40;;;16.90;71.50;;;;;;2268009;62;31123;-79
2022/03/30 19:06:36;;;;;;;1.17;0.50;;;17.00;71.20;;;;;;2267755;62;30184;-79
2022/03/30 19:09:14;;;;;;;1.45;0.50;;;17.00;71.20;;;;;;2267700;62;30557;-80
2022/03/30 19:11:46;;;;;;;0.70;0.30;;;17.00;71.20;;;;;;2261792;62;30832;-78
2022/03/30 19:14:11;;;;;;;0.90;0.43;;;17.00;70.80;;;;;;2261410;62;30851;-79
2022/03/30 19:16:38;;;;;;;2.50;0.40;;;17.00;71.40;;;;;;2268608;62;30066;-81
2022/03/30 19:19:04;;;;;;;1.27;0.47;;;17.10;70.70;;;;;;2261194;62;30357;-81
2022/03/30 19:21:30;;;;;;;0.30;0.30;;;17.10;71.20;;;;;;2268762;62;30258;-80
2022/03/30 19:23:56;;;;;;;0.82;0.40;;;17.10;70.30;;;;;;2261259;62;30431;-79
2022/03/30 19:26:25;;;;;;;1.08;0.35;;;17.10;70.00;;;;;;2268107;62;30230;-80
2022/03/30 19:28:51;;;;;;;0.68;0.38;;;17.10;70.00;;;;;;2268784;62;30828;-81
2022/03/30 19:31:17;;;;;;;0.35;0.35;;;17.10;69.70;;;;;;2254521;62;31388;-80
2022/03/30 19:33:45;;;;;;;1.63;0.40;;;17.20;69.90;;;;;;2260914;62;30849;-80
2022/03/30 19:36:14;;;;;;;1.95;0.40;;;17.10;69.60;;;;;;2261241;62;30242;-80
2022/03/30 19:38:40;;;;;;;0.75;0.40;;;17.10;69.50;;;;;;2268303;62;30234;-81
2022/03/30 19:41:10;;;;;;;0.73;0.30;;;17.10;69.30;;;;;;2268397;62;32282;-81
2022/03/30 19:43:36;;;;;;;0.43;0.40;;;17.10;69.30;;;;;;2261113;62;30596;-81
2022/03/30 19:46:02;;;;;;;0.80;0.30;;;17.10;69.30;;;;;;2260959;62;30076;-80
2022/03/30 19:48:28;;;;;;;1.35;0.57;;;17.10;69.20;;;;;;2268140;62;30551;-80
2022/03/30 19:50:58;;;;;;;0.50;0.43;;;17.10;69.10;;;;;;2261176;62;31473;-80
2022/03/30 19:53:23;;;;;;;0.70;0.40;;;17.10;69.10;;;;;;2268033;62;30750;-81
2022/03/30 19:55:49;;;;;;;6.20;1.02;;;17.10;69.00;;;;;;2268386;62;30115;-82
2022/03/30 19:58:15;;;;;;;1.20;0.47;;;17.10;69.20;;;;;;2260403;62;30093;-83
2022/03/30 20:00:47;;;;;;;0.80;0.38;;;17.10;68.90;;;;;;2260885;62;30449;-82
2022/03/30 20:03:16;;;;;;;1.20;0.40;;;17.10;68.90;;;;;;2268209;62;30087;-82
2022/03/30 20:05:43;;;;;;;0.52;0.50;;;17.20;68.80;;;;;;2268325;62;30723;-82
2022/03/30 20:08:12;;;;;;;1.30;0.38;;;17.20;69.00;;;;;;2260778;62;30512;-81
2022/03/30 20:10:40;;;;;;;1.00;0.50;;;17.20;68.70;;;;;;2268281;62;30148;-82
2022/03/30 20:13:06;;;;;;;1.60;0.35;;;17.30;68.60;;;;;;2268147;62;31573;-82
2022/03/30 20:15:32;;;;;;;2.13;0.50;;;17.30;68.50;;;;;;2267981;62;30506;-82
2022/03/30 20:18:02;;;;;;;0.50;0.30;;;17.30;68.40;;;;;;2268448;62;29929;-84
2022/03/30 20:20:29;;;;;;;1.40;0.57;;;17.30;68.30;;;;;;2268289;62;30809;-82
2022/03/30 20:22:55;;;;;;;0.40;0.40;;;17.30;68.40;;;;;;2260616;62;30747;-82
2022/03/30 20:25:20;;;;;;;0.63;0.50;;;17.40;68.30;;;;;;2260860;62;30116;-81
2022/03/30 20:27:49;;;;;;;1.10;0.43;;;17.40;68.20;;;;;;2267928;62;30531;-82
2022/03/30 20:30:16;;;;;;;0.60;0.40;;;17.40;68.50;;;;;;2268087;62;30771;-80
2022/03/30 20:32:41;;;;;;;1.33;0.52;;;17.50;68.30;;;;;;2267820;62;30399;-83
2022/03/30 20:35:11;;;;;;;0.80;0.32;;;17.50;68.20;;;;;;2260212;62;30182;-82
2022/03/30 20:37:37;;;;;;;0.68;0.30;;;17.50;68.10;;;;;;2267732;62;29868;-81
2022/03/30 20:40:04;;;;;;;1.58;0.57;;;17.50;68.00;;;;;;2260707;62;30899;-77
2022/03/30 20:42:31;;;;;;;2.47;0.30;;;17.50;68.10;;;;;;2260416;62;30184;-81
2022/03/30 20:44:57;;;;;;;0.47;0.38;;;17.50;68.10;;;;;;2260666;62;30287;-80
2022/03/30 20:47:23;;;;;;;0.32;0.17;;;17.60;68.30;;;;;;2268136;62;30372;-79
2022/03/30 20:49:49;;;;;;;0.47;0.43;;;17.60;68.30;;;;;;2267671;62;30071;-80
2022/03/30 20:52:15;;;;;;;0.55;0.20;;;17.60;68.30;;;;;;2260742;62;30524;-79
2022/03/30 20:54:42;;;;;;;0.20;0.20;;;17.60;68.30;;;;;;2267936;62;30083;-80
2022/03/30 20:57:11;;;;;;;0.70;0.30;;;17.60;68.20;;;;;;2251520;63;30060;-80
2022/03/30 20:59:37;;;;;;;2.03;0.47;;;17.60;68.20;;;;;;2246008;63;30861;-81
2022/03/30 21:02:04;;;;;;;1.55;0.40;;;17.60;68.20;;;;;;2253024;63;30130;-81
2022/03/30 21:04:31;;;;;;;4.07;0.50;;;17.60;68.10;;;;;;2252344;63;30273;-79
2022/03/30 21:06:58;;;;;;;1.45;0.40;;;17.60;68.20;;;;;;2259792;63;30231;-79
2022/03/30 21:09:24;;;;;;;0.85;0.40;;;17.60;68.20;;;;;;2259774;63;31075;-77
2022/03/30 21:11:50;;;;;;;1.42;0.40;;;17.60;68.10;;;;;;2259485;63;30541;-78
2022/03/30 21:14:16;;;;;;;0.57;0.40;;;17.60;68.10;;;;;;2259735;63;29982;-77
2022/03/30 21:16:42;;;;;;;0.30;0.30;;;17.60;68.20;;;;;;2259998;63;30235;-77
2022/03/30 21:19:11;;;;;;;0.70;0.40;;;17.60;68.30;;;;;;2259560;63;30769;-78
2022/03/30 21:21:37;;;;;;;0.65;0.40;;;17.60;68.30;;;;;;2259537;63;30141;-78
2022/03/30 21:24:04;;;;;;;0.65;0.20;;;17.60;68.30;;;;;;2252338;63;30363;-78
2022/03/30 21:26:31;;;;;;;0.82;0.40;;;17.70;68.40;;;;;;2252428;63;30259;-77
2022/03/30 21:28:57;;;;;;;0.63;0.35;;;17.70;68.30;;;;;;2252609;63;30235;-78
2022/03/30 21:31:23;;;;;;;0.50;0.50;;;17.70;68.20;;;;;;2252250;63;30641;-77
2022/03/30 21:33:51;;;;;;;0.38;0.25;;;17.70;68.30;;;;;;2259652;63;30159;-77
2022/03/30 21:36:17;;;;;;;0.45;0.30;;;17.70;68.20;;;;;;2252431;63;30071;-78
2022/03/30 21:38:44;;;;;;;0.55;0.30;;;17.60;68.20;;;;;;2259433;63;30255;-78
2022/03/30 21:41:10;;;;;;;0.30;0.30;;;17.70;68.20;;;;;;2252396;63;32118;-75
2022/03/30 21:43:36;;;;;;;0.55;0.50;;;17.70;68.10;;;;;;2252356;63;29994;-77
2022/03/30 21:46:02;;;;;;;0.60;0.25;;;17.70;68.10;;;;;;2251883;63;30351;-77
2022/03/30 21:48:28;;;;;;;0.20;0.20;;;17.70;68.00;;;;;;2259693;63;30065;-77